Time;durP1;ratioP1;P1;durP2;ratioP2;P2;SDS_P1;SDS_P2;PMS_P1;PMS_P2;Temp;Humidity;BMP_temperature;BMP_pressure;BME280_temperature;BME280_humidity;BME280_pressure;Samples;Min_cycle;Max_cycle;Signal;HPM_P1;HPM_P2
2021/06/09 00:00:30;;;;;;;;;;;;;;;;;;5049813;28;19931;-68
2021/06/09 00:02:57;;;;;;;;;;;;;;;;;;5042101;28;19924;-68
2021/06/09 00:05:23;;;;;;;;;;;;;;;;;;5048027;28;19933;-67
2021/06/09 00:07:50;;;;;;;;;;;;;;;;;;5050628;28;19931;-67
2021/06/09 00:10:16;;;;;;;;;;;;;;;;;;5053041;28;19925;-67
2021/06/09 00:12:42;;;;;;;;;;;;;;;;;;5052191;28;19924;-67
2021/06/09 00:15:09;;;;;;;;;;;;;;;;;;5048429;28;19928;-67
2021/06/09 00:17:35;;;;;;;;;;;;;;;;;;5041721;28;19931;-68
2021/06/09 00:20:02;;;;;;;;;;;;;;;;;;5048134;28;19935;-67
2021/06/09 00:22:29;;;;;;;;;;;;;;;;;;5036555;28;19925;-68
2021/06/09 00:24:56;;;;;;;;;;;;;;;;;;5047921;28;20229;-67
2021/06/09 00:27:22;;;;;;;;;;;;;;;;;;5048433;28;19925;-65
2021/06/09 00:29:49;;;;;;;;;;;;;;;;;;5046551;28;19929;-69
2021/06/09 00:32:15;;;;;;;;;;;;;;;;;;5050740;28;19932;-68
2021/06/09 00:34:42;;;;;;;;;;;;;;;;;;5047876;28;19936;-67
2021/06/09 00:37:08;;;;;;;;;;;;;;;;;;5043329;28;19932;-65
2021/06/09 00:39:35;;;;;;;;;;;;;;;;;;5042425;28;19928;-66
2021/06/09 00:42:01;;;;;;;;;;;;;;;;;;5048372;28;20023;-67
2021/06/09 00:44:28;;;;;;;;;;;;;;;;;;5051748;28;19976;-67
2021/06/09 00:46:54;;;;;;;;;;;;;;;;;;5051463;28;19929;-67
2021/06/09 00:49:20;;;;;;;;;;;;;;;;;;5048653;28;19950;-67
2021/06/09 00:51:47;;;;;;;;;;;;;;;;;;5052395;28;20016;-67
2021/06/09 00:54:13;;;;;;;;;;;;;;;;;;5048719;28;19929;-68
2021/06/09 00:56:40;;;;;;;;;;;;;;;;;;5051524;28;20017;-70
2021/06/09 00:59:06;;;;;;;;;;;;;;;;;;5048188;28;19939;-68
2021/06/09 01:01:33;;;;;;;;;;;;;;;;;;5045575;28;20188;-67
2021/06/09 01:03:59;;;;;;;;;;;;;;;;;;5046460;28;19982;-67
2021/06/09 01:06:25;;;;;;;;;;;;;;;;;;5051302;28;19944;-69
2021/06/09 01:08:52;;;;;;;;;;;;;;;;;;5052122;28;20019;-67
2021/06/09 01:11:19;;;;;;;;;;;;;;;;;;5049954;28;20361;-66
2021/06/09 01:13:45;;;;;;;;;;;;;;;;;;5046272;28;20323;-67
2021/06/09 01:16:12;;;;;;;;;;;;;;;;;;5047376;28;20343;-67
2021/06/09 01:18:38;;;;;;;;;;;;;;;;;;5049886;28;19968;-67
2021/06/09 01:21:05;;;;;;;;;;;;;;;;;;5048850;28;19929;-67
2021/06/09 01:23:31;;;;;;;;;;;;;;;;;;5046079;28;20420;-67
2021/06/09 01:25:58;;;;;;;;;;;;;;;;;;5042010;28;20340;-68
2021/06/09 01:28:24;;;;;;;;;;;;;;;;;;5050598;28;20002;-68
2021/06/09 01:30:51;;;;;;;;;;;;;;;;;;5050568;28;19984;-68
2021/06/09 01:33:17;;;;;;;;;;;;;;;;;;5043895;28;19933;-68
2021/06/09 01:35:44;;;;;;;;;;;;;;;;;;5045253;28;19925;-66
2021/06/09 01:38:10;;;;;;;;;;;;;;;;;;5046881;28;19925;-68
2021/06/09 01:40:37;;;;;;;;;;;;;;;;;;5049604;28;19933;-67
2021/06/09 01:43:03;;;;;;;;;;;;;;;;;;5050240;28;19925;-68
2021/06/09 01:45:29;;;;;;;;;;;;;;;;;;5047576;28;19931;-68
2021/06/09 01:47:56;;;;;;;;;;;;;;;;;;5046428;28;20385;-68
2021/06/09 01:50:22;;;;;;;;;;;;;;;;;;5043965;28;19925;-64
2021/06/09 01:52:49;;;;;;;;;;;;;;;;;;5044031;28;20269;-68
2021/06/09 01:55:15;;;;;;;;;;;;;;;;;;5050710;28;20400;-68
2021/06/09 01:57:42;;;;;;;;;;;;;;;;;;5050182;28;19951;-68
2021/06/09 02:00:08;;;;;;;;;;;;;;;;;;5049071;28;20334;-68
2021/06/09 02:02:34;;;;;;;;;;;;;;;;;;5050758;28;20303;-67
2021/06/09 02:05:01;;;;;;;;;;;;;;;;;;5040639;28;20270;-66
2021/06/09 02:07:27;;;;;;;;;;;;;;;;;;5048494;28;19935;-70
2021/06/09 02:09:54;;;;;;;;;;;;;;;;;;5046606;28;19925;-68
2021/06/09 02:12:20;;;;;;;;;;;;;;;;;;5050827;28;19924;-67
2021/06/09 02:14:47;;;;;;;;;;;;;;;;;;5053023;28;19931;-66
2021/06/09 02:17:13;;;;;;;;;;;;;;;;;;5051277;28;20023;-68
2021/06/09 02:19:40;;;;;;;;;;;;;;;;;;5048867;28;19931;-67
2021/06/09 02:22:07;;;;;;;;;;;;;;;;;;5046632;28;20308;-68
2021/06/09 02:24:33;;;;;;;;;;;;;;;;;;5041731;28;19986;-66
2021/06/09 02:26:59;;;;;;;;;;;;;;;;;;5053080;28;19933;-68
2021/06/09 02:29:26;;;;;;;;;;;;;;;;;;5048031;28;19987;-68
2021/06/09 02:31:52;;;;;;;;;;;;;;;;;;5049589;28;20015;-69
2021/06/09 02:34:19;;;;;;;;;;;;;;;;;;5046876;28;19947;-67
2021/06/09 02:36:45;;;;;;;;;;;;;;;;;;5047051;28;20023;-67
2021/06/09 02:39:12;;;;;;;;;;;;;;;;;;5049502;28;19948;-67
2021/06/09 02:41:38;;;;;;;;;;;;;;;;;;5043243;28;20004;-68
2021/06/09 02:44:04;;;;;;;;;;;;;;;;;;5048946;28;20285;-68
2021/06/09 02:46:31;;;;;;;;;;;;;;;;;;5041145;28;20403;-68
2021/06/09 02:48:57;;;;;;;;;;;;;;;;;;5049768;28;20388;-68
2021/06/09 02:51:24;;;;;;;;;;;;;;;;;;5042253;28;20378;-67
2021/06/09 02:53:50;;;;;;;;;;;;;;;;;;5045702;28;19939;-67
2021/06/09 02:56:17;;;;;;;;;;;;;;;;;;5048857;28;19933;-68
2021/06/09 02:58:44;;;;;;;;;;;;;;;;;;5047854;28;19925;-68
2021/06/09 03:01:10;;;;;;;;;;;;;;;;;;5044675;28;19964;-66
2021/06/09 03:03:36;;;;;;;;;;;;;;;;;;5041320;28;19932;-63
2021/06/09 03:06:03;;;;;;;;;;;;;;;;;;5045324;28;20308;-67
2021/06/09 03:08:29;;;;;;;;;;;;;;;;;;5043691;28;19932;-67
2021/06/09 03:10:56;;;;;;;;;;;;;;;;;;5060299;22;19923;-64
2021/06/09 03:13:26;;;;;;;;;;;;;;;;;;5044127;28;20028;-64
2021/06/09 03:15:53;;;;;;;;;;;;;;;;;;5044864;28;19925;-65
2021/06/09 03:18:19;;;;;;;;;;;;;;;;;;5052299;28;20214;-64
2021/06/09 03:20:46;;;;;;;;;;;;;;;;;;5056953;28;19931;-64
2021/06/09 03:23:12;;;;;;;;;;;;;;;;;;5070520;28;19924;-65
2021/06/09 03:25:39;;;;;;;;;;;;;;;;;;5075449;28;19924;-65
2021/06/09 03:28:05;;;;;;;;;;;;;;;;;;5076787;28;19971;-65
2021/06/09 03:30:32;;;;;;;;;;;;;;;;;;5048615;28;20007;-65
2021/06/09 03:32:58;;;;;;;;;;;;;;;;;;5054469;28;19924;-65
2021/06/09 03:35:25;;;;;;;;;;;;;;;;;;5049323;28;19943;-64
2021/06/09 03:37:51;;;;;;;;;;;;;;;;;;5052734;28;20350;-65
2021/06/09 03:40:18;;;;;;;;;;;;;;;;;;5059690;28;19924;-65
2021/06/09 03:42:44;;;;;;;;;;;;;;;;;;5046683;28;20343;-65
2021/06/09 03:45:11;;;;;;;;;;;;;;;;;;5041155;28;19925;-66
2021/06/09 03:47:37;;;;;;;;;;;;;;;;;;5055473;28;19928;-65
2021/06/09 03:50:04;;;;;;;;;;;;;;;;;;5047013;28;19951;-65
2021/06/09 03:52:32;;;;;;;;;;;;;;;;;;5050300;28;19932;-65
2021/06/09 03:54:58;;;;;;;;;;;;;;;;;;5055832;28;19929;-66
2021/06/09 03:57:25;;;;;;;;;;;;;;;;;;5048835;28;19929;-65
2021/06/09 03:59:51;;;;;;;;;;;;;;;;;;5056925;28;20012;-65
2021/06/09 04:02:18;;;;;;;;;;;;;;;;;;5049968;28;19924;-65
2021/06/09 04:04:44;;;;;;;;;;;;;;;;;;5059652;28;20395;-65
2021/06/09 04:07:11;;;;;;;;;;;;;;;;;;5046160;28;19925;-65
2021/06/09 04:09:37;;;;;;;;;;;;;;;;;;5050621;28;19975;-65
2021/06/09 04:12:04;;;;;;;;;;;;;;;;;;5051850;28;19925;-65
2021/06/09 04:14:30;;;;;;;;;;;;;;;;;;5044316;28;19931;-64
2021/06/09 04:16:57;;;;;;;;;;;;;;;;;;5046111;28;19933;-64
2021/06/09 04:19:23;;;;;;;;;;;;;;;;;;5055873;28;19925;-64
2021/06/09 04:21:50;;;;;;;;;;;;;;;;;;5058030;28;19928;-64
2021/06/09 04:24:16;;;;;;;;;;;;;;;;;;5048478;28;19925;-64
2021/06/09 04:26:43;;;;;;;;;;;;;;;;;;5050417;28;19982;-64
2021/06/09 04:29:09;;;;;;;;;;;;;;;;;;5053517;28;20391;-64
2021/06/09 04:31:36;;;;;;;;;;;;;;;;;;5056314;28;19931;-64
2021/06/09 04:34:02;;;;;;;;;;;;;;;;;;5051549;28;19960;-65
2021/06/09 04:36:29;;;;;;;;;;;;;;;;;;5051768;28;19960;-64
2021/06/09 04:38:55;;;;;;;;;;;;;;;;;;5051263;28;20379;-65
2021/06/09 04:41:22;;;;;;;;;;;;;;;;;;5050722;28;20024;-64
2021/06/09 04:43:48;;;;;;;;;;;;;;;;;;5052678;28;20347;-65
2021/06/09 04:46:15;;;;;;;;;;;;;;;;;;5050758;28;19988;-64
2021/06/09 04:48:41;;;;;;;;;;;;;;;;;;5057384;28;20024;-64
2021/06/09 04:51:07;;;;;;;;;;;;;;;;;;5053425;28;19929;-64
2021/06/09 04:53:34;;;;;;;;;;;;;;;;;;5049458;28;19925;-64
2021/06/09 04:56:00;;;;;;;;;;;;;;;;;;5044792;28;19973;-64
2021/06/09 04:58:27;;;;;;;;;;;;;;;;;;5047781;28;19935;-64
2021/06/09 05:00:53;;;;;;;;;;;;;;;;;;5050985;28;20387;-64
2021/06/09 05:03:20;;;;;;;;;;;;;;;;;;5047262;28;19931;-64
2021/06/09 05:05:49;;;;;;;;;;;;;;;;;;5053073;28;19968;-64
2021/06/09 05:08:16;;;;;;;;;;;;;;;;;;5049392;28;20023;-64
2021/06/09 05:10:42;;;;;;;;;;;;;;;;;;5050575;28;19933;-64
2021/06/09 05:13:09;;;;;;;;;;;;;;;;;;5052257;28;20287;-64
2021/06/09 05:15:35;;;;;;;;;;;;;;;;;;5051321;28;19931;-65
2021/06/09 05:18:02;;;;;;;;;;;;;;;;;;5054512;28;19975;-65
2021/06/09 05:20:28;;;;;;;;;;;;;;;;;;5056004;28;19924;-65
2021/06/09 05:22:55;;;;;;;;;;;;;;;;;;5052959;28;19924;-65
2021/06/09 05:25:21;;;;;;;;;;;;;;;;;;5058209;28;20032;-65
2021/06/09 05:27:47;;;;;;;;;;;;;;;;;;5049661;28;19929;-65
2021/06/09 05:30:14;;;;;;;;;;;;;;;;;;5051166;28;19924;-66
2021/06/09 05:32:41;;;;;;;;;;;;;;;;;;5045999;28;20019;-65
2021/06/09 05:35:07;;;;;;;;;;;;;;;;;;5053548;28;19959;-65
2021/06/09 05:37:33;;;;;;;;;;;;;;;;;;5053106;28;20311;-65
2021/06/09 05:40:02;;;;;;;;;;;;;;;;;;5052600;28;19925;-65
2021/06/09 05:42:28;;;;;;;;;;;;;;;;;;5047786;28;19925;-65
2021/06/09 05:44:54;;;;;;;;;;;;;;;;;;5052852;28;20401;-65
2021/06/09 05:47:21;;;;;;;;;;;;;;;;;;5053487;28;19925;-65
2021/06/09 05:49:47;;;;;;;;;;;;;;;;;;5052973;28;19929;-64
2021/06/09 05:52:14;;;;;;;;;;;;;;;;;;5053250;28;20293;-65
2021/06/09 05:54:41;;;;;;;;;;;;;;;;;;5052574;28;19943;-65
2021/06/09 05:57:07;;;;;;;;;;;;;;;;;;5045368;28;19928;-65
2021/06/09 05:59:34;;;;;;;;;;;;;;;;;;5050638;28;19929;-65
2021/06/09 06:02:00;;;;;;;;;;;;;;;;;;5046103;28;19958;-65
2021/06/09 06:04:27;;;;;;;;;;;;;;;;;;5052604;28;20020;-65
2021/06/09 06:06:53;;;;;;;;;;;;;;;;;;5050146;28;20007;-66
2021/06/09 06:09:20;;;;;;;;;;;;;;;;;;5047579;28;19977;-65
2021/06/09 06:11:46;;;;;;;;;;;;;;;;;;5049081;28;19955;-65
2021/06/09 06:14:12;;;;;;;;;;;;;;;;;;5051562;28;20427;-63
2021/06/09 06:16:39;;;;;;;;;;;;;;;;;;5048796;28;19931;-65
2021/06/09 06:19:05;;;;;;;;;;;;;;;;;;5049774;28;19925;-65
2021/06/09 06:21:32;;;;;;;;;;;;;;;;;;5054255;28;19924;-65
2021/06/09 06:23:58;;;;;;;;;;;;;;;;;;5057915;28;19925;-65
2021/06/09 06:26:25;;;;;;;;;;;;;;;;;;5053990;28;19983;-65
2021/06/09 06:28:52;;;;;;;;;;;;;;;;;;5047877;28;19932;-63
2021/06/09 06:31:18;;;;;;;;;;;;;;;;;;5052454;28;19928;-63
2021/06/09 06:33:45;;;;;;;;;;;;;;;;;;5049310;28;19933;-64
2021/06/09 06:36:11;;;;;;;;;;;;;;;;;;5046344;28;19935;-64
2021/06/09 06:38:38;;;;;;;;;;;;;;;;;;5042498;28;19936;-63
2021/06/09 06:41:04;;;;;;;;;;;;;;;;;;5046698;28;19928;-63
2021/06/09 06:43:31;;;;;;;;;;;;;;;;;;5049583;28;19939;-64
2021/06/09 06:45:57;;;;;;;;;;;;;;;;;;5047850;28;19929;-64
2021/06/09 06:48:24;;;;;;;;;;;;;;;;;;5047509;28;19933;-64
2021/06/09 06:50:50;;;;;;;;;;;;;;;;;;5047633;28;19924;-64
2021/06/09 06:53:16;;;;;;;;;;;;;;;;;;5051610;28;20400;-64
2021/06/09 06:55:43;;;;;;;;;;;;;;;;;;5051551;28;19925;-64
2021/06/09 06:58:09;;;;;;;;;;;;;;;;;;5050825;28;20000;-65
2021/06/09 07:00:36;;;;;;;;;;;;;;;;;;5048066;28;19925;-64
2021/06/09 07:03:02;;;;;;;;;;;;;;;;;;5051825;28;19936;-64
2021/06/09 07:05:29;;;;;;;;;;;;;;;;;;5048168;28;19933;-65
2021/06/09 07:07:55;;;;;;;;;;;;;;;;;;5049197;28;19932;-65
2021/06/09 07:10:22;;;;;;;;;;;;;;;;;;5056778;28;20311;-65
2021/06/09 07:12:48;;;;;;;;;;;;;;;;;;5048304;28;20387;-64
2021/06/09 07:15:14;;;;;;;;;;;;;;;;;;5054185;28;19931;-65
2021/06/09 07:17:41;;;;;;;;;;;;;;;;;;5049126;28;19928;-65
2021/06/09 07:20:07;;;;;;;;;;;;;;;;;;5050681;28;19933;-65
2021/06/09 07:22:34;;;;;;;;;;;;;;;;;;5047903;28;19986;-65
2021/06/09 07:25:00;;;;;;;;;;;;;;;;;;5050323;28;19924;-65
2021/06/09 07:27:28;;;;;;;;;;;;;;;;;;5048676;28;19936;-66
2021/06/09 07:29:54;;;;;;;;;;;;;;;;;;5053464;28;20062;-66
2021/06/09 07:32:21;;;;;;;;;;;;;;;;;;5053172;28;19925;-66
2021/06/09 07:34:49;;;;;;;;;;;;;;;;;;5055363;28;19933;-66
2021/06/09 07:37:15;;;;;;;;;;;;;;;;;;5051732;28;19928;-66
2021/06/09 07:39:42;;;;;;;;;;;;;;;;;;5053901;28;19924;-66
2021/06/09 07:42:08;;;;;;;;;;;;;;;;;;5054640;28;19928;-66
2021/06/09 07:44:35;;;;;;;;;;;;;;;;;;5053486;28;20015;-67
2021/06/09 07:47:01;;;;;;;;;;;;;;;;;;5058650;28;19924;-66
2021/06/09 07:49:27;;;;;;;;;;;;;;;;;;5050877;28;19931;-67
2021/06/09 07:51:54;;;;;;;;;;;;;;;;;;5052717;28;19924;-67
2021/06/09 07:54:20;;;;;;;;;;;;;;;;;;5057869;28;19931;-67
2021/06/09 07:56:47;;;;;;;;;;;;;;;;;;5057925;28;19929;-67
2021/06/09 07:59:13;;;;;;;;;;;;;;;;;;5059280;28;20299;-67
2021/06/09 08:01:40;;;;;;;;;;;;;;;;;;5056304;28;19931;-67
2021/06/09 08:04:06;;;;;;;;;;;;;;;;;;5055488;28;20220;-67
2021/06/09 08:06:33;;;;;;;;;;;;;;;;;;5055014;28;19943;-67
2021/06/09 08:09:00;;;;;;;;;;;;;;;;;;5054033;28;19925;-67
2021/06/09 08:11:26;;;;;;;;;;;;;;;;;;5060232;28;20438;-66
2021/06/09 08:13:53;;;;;;;;;;;;;;;;;;5056358;28;19948;-67
2021/06/09 08:16:19;;;;;;;;;;;;;;;;;;5055167;28;19924;-66
2021/06/09 08:18:46;;;;;;;;;;;;;;;;;;5053355;28;19926;-66
2021/06/09 08:21:13;;;;;;;;;;;;;;;;;;5060346;28;20400;-66
2021/06/09 08:23:40;;;;;;;;;;;;;;;;;;5055436;28;20368;-66
2021/06/09 08:26:07;;;;;;;;;;;;;;;;;;5055899;28;20354;-66
2021/06/09 08:28:35;;;;;;;;;;;;;;;;;;5056092;28;19925;-66
2021/06/09 08:31:02;;;;;;;;;;;;;;;;;;5057502;28;19925;-66
2021/06/09 08:33:28;;;;;;;;;;;;;;;;;;5057032;28;19924;-65
2021/06/09 08:35:55;;;;;;;;;;;;;;;;;;5055310;28;19925;-65
2021/06/09 08:38:21;;;;;;;;;;;;;;;;;;5053189;28;19932;-66
2021/06/09 08:40:48;;;;;;;;;;;;;;;;;;5052008;28;19933;-65
2021/06/09 08:43:14;;;;;;;;;;;;;;;;;;5055824;28;19931;-66
2021/06/09 08:45:44;;;;;;;;;;;;;;;;;;5059465;28;19961;-65
2021/06/09 08:48:10;;;;;;;;;;;;;;;;;;5056280;28;20016;-65
2021/06/09 08:50:37;;;;;;;;;;;;;;;;;;5050129;28;19928;-67
2021/06/09 08:53:06;;;;;;;;;;;;;;;;;;5053481;28;20403;-64
2021/06/09 08:55:32;;;;;;;;;;;;;;;;;;5052358;28;19932;-65
2021/06/09 08:57:59;;;;;;;;;;;;;;;;;;5050597;28;19924;-64
2021/06/09 09:00:25;;;;;;;;;;;;;;;;;;5053571;28;20449;-65
2021/06/09 09:02:53;;;;;;;;;;;;;;;;;;5052840;28;20401;-64
2021/06/09 09:05:19;;;;;;;;;;;;;;;;;;5053870;28;19925;-65
2021/06/09 09:07:46;;;;;;;;;;;;;;;;;;5051646;28;19925;-64
2021/06/09 09:10:15;;;;;;;;;;;;;;;;;;5051317;28;19935;-64
2021/06/09 09:12:41;;;;;;;;;;;;;;;;;;5060052;28;19925;-65
2021/06/09 09:15:08;;;;;;;;;;;;;;;;;;5059830;28;19932;-65
2021/06/09 09:17:34;;;;;;;;;;;;;;;;;;5061304;28;19925;-65
2021/06/09 09:20:01;;;;;;;;;;;;;;;;;;5054319;28;19929;-65
2021/06/09 09:22:27;;;;;;;;;;;;;;;;;;5055604;28;19929;-65
2021/06/09 09:24:55;;;;;;;;;;;;;;;;;;5051345;28;19932;-65
2021/06/09 09:27:27;;;;;;;;;;;;;;;;;;5057966;28;20373;-65
2021/06/09 09:29:54;;;;;;;;;;;;;;;;;;5061235;28;20068;-65
2021/06/09 09:32:20;;;;;;;;;;;;;;;;;;5052083;28;19982;-63
2021/06/09 09:34:47;;;;;;;;;;;;;;;;;;5054398;28;19972;-64
2021/06/09 09:37:13;;;;;;;;;;;;;;;;;;5058673;28;20437;-65
2021/06/09 09:39:40;;;;;;;;;;;;;;;;;;5055220;28;19929;-64
2021/06/09 09:42:07;;;;;;;;;;;;;;;;;;5057529;28;20404;-66
2021/06/09 09:44:33;;;;;;;;;;;;;;;;;;5058509;28;19925;-67
2021/06/09 09:47:00;;;;;;;;;;;;;;;;;;5059864;28;20438;-66
2021/06/09 09:49:26;;;;;;;;;;;;;;;;;;5055915;28;19939;-68
2021/06/09 09:51:54;;;;;;;;;;;;;;;;;;5051225;28;20011;-66
2021/06/09 09:54:21;;;;;;;;;;;;;;;;;;5054131;28;19924;-66
2021/06/09 09:56:47;;;;;;;;;;;;;;;;;;5054857;28;19933;-66
2021/06/09 09:59:14;;;;;;;;;;;;;;;;;;5056513;28;19925;-66
2021/06/09 10:01:41;;;;;;;;;;;;;;;;;;5055198;28;20404;-66
2021/06/09 10:04:08;;;;;;;;;;;;;;;;;;5057129;28;19932;-66
2021/06/09 10:06:34;;;;;;;;;;;;;;;;;;5057729;28;19931;-66
2021/06/09 10:09:01;;;;;;;;;;;;;;;;;;5051513;28;20384;-65
2021/06/09 10:11:27;;;;;;;;;;;;;;;;;;5051186;28;19968;-65
2021/06/09 10:13:54;;;;;;;;;;;;;;;;;;5059008;28;19956;-64
2021/06/09 10:16:20;;;;;;;;;;;;;;;;;;5057886;28;20348;-65
2021/06/09 10:18:47;;;;;;;;;;;;;;;;;;5058061;28;19928;-64
2021/06/09 10:21:13;;;;;;;;;;;;;;;;;;5052144;28;20007;-65
2021/06/09 10:23:40;;;;;;;;;;;;;;;;;;5055800;28;20403;-65
2021/06/09 10:26:06;;;;;;;;;;;;;;;;;;5054804;28;19925;-65
2021/06/09 10:28:33;;;;;;;;;;;;;;;;;;5057124;28;19950;-65
2021/06/09 10:30:59;;;;;;;;;;;;;;;;;;5055541;28;20003;-66
2021/06/09 10:33:26;;;;;;;;;;;;;;;;;;5055213;28;19977;-65
2021/06/09 10:35:52;;;;;;;;;;;;;;;;;;5054226;28;19926;-66
2021/06/09 10:38:19;;;;;;;;;;;;;;;;;;5053840;28;19925;-66
2021/06/09 10:40:45;;;;;;;;;;;;;;;;;;5052908;28;19928;-66
2021/06/09 10:43:12;;;;;;;;;;;;;;;;;;5051581;28;20304;-66
2021/06/09 10:45:39;;;;;;;;;;;;;;;;;;5058093;28;19969;-65
2021/06/09 10:48:06;;;;;;;;;;;;;;;;;;5063856;28;19938;-66
2021/06/09 10:50:32;;;;;;;;;;;;;;;;;;5051172;28;20291;-66
2021/06/09 10:52:59;;;;;;;;;;;;;;;;;;5049738;28;19931;-66
2021/06/09 10:55:25;;;;;;;;;;;;;;;;;;5052357;28;20388;-66
2021/06/09 10:57:52;;;;;;;;;;;;;;;;;;5056811;28;19925;-66
2021/06/09 11:00:18;;;;;;;;;;;;;;;;;;5055735;28;20287;-66
2021/06/09 11:02:45;;;;;;;;;;;;;;;;;;5061023;28;20351;-66
2021/06/09 11:05:11;;;;;;;;;;;;;;;;;;5050999;28;19932;-66
2021/06/09 11:07:39;;;;;;;;;;;;;;;;;;5058933;28;19928;-66
2021/06/09 11:10:05;;;;;;;;;;;;;;;;;;5051848;28;19931;-65
2021/06/09 11:12:32;;;;;;;;;;;;;;;;;;5056167;28;20293;-65
2021/06/09 11:14:59;;;;;;;;;;;;;;;;;;5055468;28;19925;-65
2021/06/09 11:17:25;;;;;;;;;;;;;;;;;;5054740;28;19963;-65
2021/06/09 11:19:52;;;;;;;;;;;;;;;;;;5061703;28;20304;-65
2021/06/09 11:22:19;;;;;;;;;;;;;;;;;;5059579;28;19929;-65
2021/06/09 11:24:45;;;;;;;;;;;;;;;;;;5054465;28;20434;-65
2021/06/09 11:27:12;;;;;;;;;;;;;;;;;;5054889;28;19925;-65
2021/06/09 11:29:39;;;;;;;;;;;;;;;;;;5052319;28;20014;-70
2021/06/09 11:32:05;;;;;;;;;;;;;;;;;;5062465;28;19928;-65
2021/06/09 11:34:32;;;;;;;;;;;;;;;;;;5046021;28;19982;-64
2021/06/09 11:36:58;;;;;;;;;;;;;;;;;;5045890;28;19979;-64
2021/06/09 11:39:25;;;;;;;;;;;;;;;;;;5048173;28;19925;-64
2021/06/09 11:41:52;;;;;;;;;;;;;;;;;;5045763;28;19937;-64
2021/06/09 11:44:18;;;;;;;;;;;;;;;;;;5047594;28;20447;-64
2021/06/09 11:46:45;;;;;;;;;;;;;;;;;;5044598;28;20019;-64
2021/06/09 11:49:11;;;;;;;;;;;;;;;;;;5047100;28;19950;-64
2021/06/09 11:51:41;;;;;;;;;;;;;;;;;;5053006;28;19940;-64
2021/06/09 11:54:08;;;;;;;;;;;;;;;;;;5048318;28;19925;-65
2021/06/09 11:56:34;;;;;;;;;;;;;;;;;;5047046;28;20295;-64
2021/06/09 11:59:01;;;;;;;;;;;;;;;;;;5046157;28;19983;-65
2021/06/09 12:01:27;;;;;;;;;;;;;;;;;;5045692;28;19974;-64
2021/06/09 12:03:54;;;;;;;;;;;;;;;;;;5049358;28;20399;-64
2021/06/09 12:06:20;;;;;;;;;;;;;;;;;;5047641;28;20023;-64
2021/06/09 12:08:47;;;;;;;;;;;;;;;;;;5047736;28;19929;-64
2021/06/09 12:11:13;;;;;;;;;;;;;;;;;;5043606;28;19936;-63
2021/06/09 12:13:41;;;;;;;;;;;;;;;;;;5044315;28;20132;-63
2021/06/09 12:16:07;;;;;;;;;;;;;;;;;;5049722;28;20350;-64
2021/06/09 12:18:34;;;;;;;;;;;;;;;;;;5049638;28;19929;-64
2021/06/09 12:21:00;;;;;;;;;;;;;;;;;;5050964;28;19934;-64
2021/06/09 12:23:27;;;;;;;;;;;;;;;;;;5054086;28;19938;-64
2021/06/09 12:25:53;;;;;;;;;;;;;;;;;;5051323;28;19967;-64
2021/06/09 12:28:20;;;;;;;;;;;;;;;;;;5048110;28;19931;-65
2021/06/09 12:30:46;;;;;;;;;;;;;;;;;;5052031;28;20521;-65
2021/06/09 12:33:13;;;;;;;;;;;;;;;;;;5050424;28;20059;-65
2021/06/09 12:35:39;;;;;;;;;;;;;;;;;;5050859;28;20043;-71
2021/06/09 12:38:06;;;;;;;;;;;;;;;;;;5049724;28;20384;-65
2021/06/09 12:40:32;;;;;;;;;;;;;;;;;;5047928;28;20023;-65
2021/06/09 12:42:59;;;;;;;;;;;;;;;;;;5048565;28;20011;-65
2021/06/09 12:45:25;;;;;;;;;;;;;;;;;;5049959;28;19924;-64
2021/06/09 12:47:52;;;;;;;;;;;;;;;;;;5050736;28;19925;-64
2021/06/09 12:50:18;;;;;;;;;;;;;;;;;;5049665;28;19924;-64
2021/06/09 12:52:45;;;;;;;;;;;;;;;;;;5052926;28;19925;-64
2021/06/09 12:55:12;;;;;;;;;;;;;;;;;;5050601;28;19932;-65
2021/06/09 12:57:38;;;;;;;;;;;;;;;;;;5046791;28;19987;-64
2021/06/09 13:00:05;;;;;;;;;;;;;;;;;;5047936;28;19933;-64
2021/06/09 13:02:31;;;;;;;;;;;;;;;;;;5049477;28;19962;-64
2021/06/09 13:04:58;;;;;;;;;;;;;;;;;;5045880;28;20357;-64
2021/06/09 13:07:26;;;;;;;;;;;;;;;;;;5051441;28;19982;-64
2021/06/09 13:09:53;;;;;;;;;;;;;;;;;;5045296;28;19971;-64
2021/06/09 13:12:19;;;;;;;;;;;;;;;;;;5046663;28;19933;-64
2021/06/09 13:14:48;;;;;;;;;;;;;;;;;;5049967;28;20539;-66
2021/06/09 13:17:14;;;;;;;;;;;;;;;;;;5051876;28;20407;-64
2021/06/09 13:19:41;;;;;;;;;;;;;;;;;;5049420;28;19977;-66
2021/06/09 13:22:08;;;;;;;;;;;;;;;;;;5049621;28;19931;-64
2021/06/09 13:24:35;;;;;;;;;;;;;;;;;;5048819;28;19963;-66
2021/06/09 13:27:01;;;;;;;;;;;;;;;;;;5045682;28;20014;-64
2021/06/09 13:29:28;;;;;;;;;;;;;;;;;;5047715;28;19932;-64
2021/06/09 13:31:54;;;;;;;;;;;;;;;;;;5049068;28;19925;-64
2021/06/09 13:34:22;;;;;;;;;;;;;;;;;;5048108;28;19925;-65
2021/06/09 13:36:51;;;;;;;;;;;;;;;;;;5048274;28;19925;-65
2021/06/09 13:39:17;;;;;;;;;;;;;;;;;;5051236;28;19933;-65
2021/06/09 13:41:44;;;;;;;;;;;;;;;;;;5049024;28;19924;-64
2021/06/09 13:44:10;;;;;;;;;;;;;;;;;;5047770;28;19937;-64
2021/06/09 13:46:37;;;;;;;;;;;;;;;;;;5050250;28;19935;-64
2021/06/09 13:49:03;;;;;;;;;;;;;;;;;;5050366;28;20317;-64
2021/06/09 13:51:30;;;;;;;;;;;;;;;;;;5044963;28;19970;-64
2021/06/09 13:53:56;;;;;;;;;;;;;;;;;;5048772;28;20418;-64
2021/06/09 13:56:23;;;;;;;;;;;;;;;;;;5047843;28;20016;-64
2021/06/09 13:58:50;;;;;;;;;;;;;;;;;;5049253;28;19928;-65
2021/06/09 14:01:17;;;;;;;;;;;;;;;;;;5046406;28;20273;-64
2021/06/09 14:03:43;;;;;;;;;;;;;;;;;;5050289;28;20007;-64
2021/06/09 14:06:10;;;;;;;;;;;;;;;;;;5046323;28;19924;-65
2021/06/09 14:08:36;;;;;;;;;;;;;;;;;;5046739;28;19933;-65
2021/06/09 14:11:03;;;;;;;;;;;;;;;;;;5047348;28;19939;-64
2021/06/09 14:13:29;;;;;;;;;;;;;;;;;;5049075;28;20369;-65
2021/06/09 14:15:56;;;;;;;;;;;;;;;;;;5048870;28;19932;-64
2021/06/09 14:18:23;;;;;;;;;;;;;;;;;;5050246;28;19970;-65
2021/06/09 14:20:49;;;;;;;;;;;;;;;;;;5048797;28;20458;-64
2021/06/09 14:23:16;;;;;;;;;;;;;;;;;;5049176;28;20027;-65
2021/06/09 14:25:42;;;;;;;;;;;;;;;;;;5046712;28;20028;-65
2021/06/09 14:28:09;;;;;;;;;;;;;;;;;;5048332;28;19925;-64
2021/06/09 14:30:35;;;;;;;;;;;;;;;;;;5047746;28;20481;-66
2021/06/09 14:33:09;;;;;;;;;;;;;;;;;;5047414;28;19933;-65
2021/06/09 14:35:36;;;;;;;;;;;;;;;;;;5045158;28;19925;-65
2021/06/09 14:38:02;;;;;;;;;;;;;;;;;;5047854;28;19933;-66
2021/06/09 14:40:30;;;;;;;;;;;;;;;;;;5048820;28;19925;-66
2021/06/09 14:42:56;;;;;;;;;;;;;;;;;;5045326;28;20038;-65
2021/06/09 14:45:25;;;;;;;;;;;;;;;;;;5046391;28;19925;-65
2021/06/09 14:48:15;;;;;;;;;;;;;;;;;;5045915;28;20024;-64
2021/06/09 14:50:43;;;;;;;;;;;;;;;;;;5044632;28;19986;-67
2021/06/09 14:53:09;;;;;;;;;;;;;;;;;;5047810;28;19925;-66
2021/06/09 14:55:36;;;;;;;;;;;;;;;;;;5046807;28;20396;-65
2021/06/09 14:58:05;;;;;;;;;;;;;;;;;;5049064;28;19924;-66
2021/06/09 15:00:32;;;;;;;;;;;;;;;;;;5049734;28;19924;-65
2021/06/09 15:02:58;;;;;;;;;;;;;;;;;;5046880;28;20269;-63
2021/06/09 15:05:25;;;;;;;;;;;;;;;;;;5051370;28;20023;-63
2021/06/09 15:07:51;;;;;;;;;;;;;;;;;;5048348;28;19959;-66
2021/06/09 15:10:18;;;;;;;;;;;;;;;;;;5048542;28;20020;-63
2021/06/09 15:12:45;;;;;;;;;;;;;;;;;;5076473;22;19979;-65
2021/06/09 15:15:11;;;;;;;;;;;;;;;;;;5066976;28;20379;-64
2021/06/09 15:17:38;;;;;;;;;;;;;;;;;;5068215;28;20391;-66
2021/06/09 15:20:04;;;;;;;;;;;;;;;;;;5062317;28;19928;-66
2021/06/09 15:22:31;;;;;;;;;;;;;;;;;;5068709;28;19950;-66
2021/06/09 15:24:57;;;;;;;;;;;;;;;;;;5069659;28;19988;-66
2021/06/09 15:27:24;;;;;;;;;;;;;;;;;;5063764;28;20423;-66
2021/06/09 15:29:51;;;;;;;;;;;;;;;;;;5063903;28;19930;-66
2021/06/09 15:32:17;;;;;;;;;;;;;;;;;;5063218;28;19932;-67
2021/06/09 15:34:44;;;;;;;;;;;;;;;;;;5066288;28;19925;-67
2021/06/09 15:37:10;;;;;;;;;;;;;;;;;;5058985;28;19963;-69
2021/06/09 15:39:37;;;;;;;;;;;;;;;;;;5057910;28;19932;-68
2021/06/09 15:42:03;;;;;;;;;;;;;;;;;;5059433;28;19925;-69
2021/06/09 15:44:30;;;;;;;;;;;;;;;;;;5066530;28;19924;-69
2021/06/09 15:46:56;;;;;;;;;;;;;;;;;;5059253;28;20643;-68
2021/06/09 15:49:24;;;;;;;;;;;;;;;;;;5067009;28;19924;-67
2021/06/09 15:51:50;;;;;;;;;;;;;;;;;;5061919;28;19925;-68
2021/06/09 15:54:17;;;;;;;;;;;;;;;;;;5064347;28;19926;-68
2021/06/09 15:56:43;;;;;;;;;;;;;;;;;;5066270;28;21146;-67
2021/06/09 15:59:10;;;;;;;;;;;;;;;;;;5061257;28;19940;-67
2021/06/09 16:01:36;;;;;;;;;;;;;;;;;;5068201;28;20011;-67
2021/06/09 16:04:03;;;;;;;;;;;;;;;;;;5060604;28;19932;-68
2021/06/09 16:06:29;;;;;;;;;;;;;;;;;;5061887;28;20299;-68
2021/06/09 16:08:56;;;;;;;;;;;;;;;;;;5063760;28;20296;-67
2021/06/09 16:11:22;;;;;;;;;;;;;;;;;;5066813;28;19931;-65
2021/06/09 16:13:49;;;;;;;;;;;;;;;;;;5066147;28;19988;-66
2021/06/09 16:16:15;;;;;;;;;;;;;;;;;;5073574;28;19944;-66
2021/06/09 16:18:42;;;;;;;;;;;;;;;;;;5069564;28;19947;-67
2021/06/09 16:21:08;;;;;;;;;;;;;;;;;;5064845;28;19970;-68
2021/06/09 16:23:36;;;;;;;;;;;;;;;;;;5066699;28;19924;-69
2021/06/09 16:26:03;;;;;;;;;;;;;;;;;;5072620;28;19960;-67
2021/06/09 16:28:29;;;;;;;;;;;;;;;;;;5069091;28;20019;-67
2021/06/09 16:30:56;;;;;;;;;;;;;;;;;;5063334;28;19929;-67
2021/06/09 16:33:22;;;;;;;;;;;;;;;;;;5068728;28;19932;-66
2021/06/09 16:35:49;;;;;;;;;;;;;;;;;;5062345;28;19928;-67
2021/06/09 16:38:15;;;;;;;;;;;;;;;;;;5060810;28;19925;-67
2021/06/09 16:40:42;;;;;;;;;;;;;;;;;;5067987;28;19925;-67